createdAt,value
2023-05-17T00:00:59.638Z,97646.97
2023-05-17T00:03:44.953Z,97608.97
2023-05-17T00:06:31.871Z,97608.97
2023-05-17T00:09:17.340Z,97642.28
2023-05-17T00:12:03.285Z,97763.84
2023-05-17T00:14:48.614Z,97773.97
2023-05-17T00:17:33.901Z,97677.06
2023-05-17T00:20:19.425Z,97765.56
2023-05-17T00:23:04.822Z,97696.22
2023-05-17T00:25:50.127Z,97716.47
2023-05-17T00:28:35.559Z,97723.91
2023-05-17T00:31:21.008Z,97573.88
2023-05-17T00:34:06.399Z,97715.94
2023-05-17T00:36:51.634Z,97742.97
2023-05-17T00:39:37.022Z,97669.16
2023-05-17T00:42:22.904Z,97581.31
2023-05-17T00:45:08.635Z,97589.50
2023-05-17T00:47:54.263Z,97769.00
2023-05-17T00:50:40.072Z,97576.34
2023-05-17T00:53:26.277Z,97580.88
2023-05-17T00:56:11.922Z,97574.91
2023-05-17T00:58:57.589Z,97703.47
2023-05-17T01:01:44.012Z,97620.66
2023-05-17T01:04:31.362Z,97792.00
2023-05-17T01:07:18.748Z,97590.53
2023-05-17T01:10:06.934Z,97617.66
2023-05-17T01:13:18.448Z,97759.50
2023-05-17T01:16:18.746Z,97783.16
2023-05-17T01:19:41.544Z,97747.28
2023-05-17T01:22:33.220Z,97713.00
2023-05-17T01:25:24.860Z,97760.28
2023-05-17T01:28:12.088Z,97752.94
2023-05-17T01:31:00.591Z,97745.91
2023-05-17T01:33:46.708Z,97583.06
2023-05-17T01:36:32.092Z,97606.50
2023-05-17T01:39:17.593Z,97736.84
2023-05-17T01:42:11.241Z,97684.91
2023-05-17T01:45:02.635Z,97743.00
2023-05-17T01:47:48.776Z,97772.34
2023-05-17T01:50:36.221Z,97729.00
2023-05-17T01:53:30.336Z,97749.88
2023-05-17T01:56:32.890Z,97590.63
2023-05-17T01:59:24.181Z,97635.13
2023-05-17T02:02:10.030Z,97600.75
2023-05-17T02:04:55.684Z,97694.75
2023-05-17T02:07:41.633Z,97619.75
2023-05-17T02:10:26.980Z,97726.94
2023-05-17T02:13:13.009Z,97624.91
2023-05-17T02:16:02.115Z,97591.94
2023-05-17T02:18:47.851Z,97593.53
2023-05-17T02:21:33.156Z,97720.47
2023-05-17T02:24:18.798Z,97755.06
2023-05-17T02:27:04.660Z,97614.81
2023-05-17T02:29:50.562Z,97743.78
2023-05-17T02:32:36.020Z,97720.09
2023-05-17T02:35:22.093Z,97694.34
2023-05-17T02:38:09.556Z,97739.00
2023-05-17T02:40:54.769Z,97571.94
2023-05-17T02:43:40.226Z,97565.25
2023-05-17T02:46:26.288Z,97573.94
2023-05-17T02:49:11.657Z,97595.31
2023-05-17T02:51:57.199Z,97741.50
2023-05-17T02:54:45.442Z,97742.75
2023-05-17T02:57:30.950Z,97705.84
2023-05-17T03:00:16.865Z,97710.34
2023-05-17T03:03:02.848Z,97681.19
2023-05-17T03:05:49.172Z,97784.28
2023-05-17T03:08:34.843Z,97625.09
2023-05-17T03:11:21.478Z,97751.38
2023-05-17T03:14:07.053Z,97537.81
2023-05-17T03:16:52.365Z,97589.84
2023-05-17T03:19:38.795Z,97723.88
2023-05-17T03:22:24.260Z,97753.25
2023-05-17T03:25:10.945Z,97576.66
2023-05-17T03:27:56.544Z,97585.34
2023-05-17T03:30:42.296Z,97735.59
2023-05-17T03:33:28.475Z,97744.78
2023-05-17T03:36:14.325Z,97595.06
2023-05-17T03:38:59.704Z,97692.91
2023-05-17T03:41:45.701Z,97606.59
2023-05-17T03:44:32.219Z,97606.41
2023-05-17T03:47:17.583Z,97592.34
2023-05-17T03:50:03.765Z,97690.31
2023-05-17T03:52:49.428Z,97752.16
2023-05-17T03:55:34.856Z,97774.38
2023-05-17T03:58:20.298Z,97267.47
2023-05-17T04:01:05.886Z,97785.97
2023-05-17T04:03:52.590Z,97624.28
2023-05-17T04:06:39.998Z,97788.34
2023-05-17T04:09:25.867Z,97792.47
2023-05-17T04:12:12.141Z,97633.09
2023-05-17T04:14:58.423Z,97724.75
2023-05-17T04:17:44.543Z,97775.97
2023-05-17T04:20:31.143Z,97807.81
2023-05-17T04:23:16.812Z,97718.03
2023-05-17T04:26:04.264Z,97696.31
2023-05-17T04:28:52.013Z,97641.53
2023-05-17T04:31:37.666Z,97797.16
2023-05-17T04:34:25.035Z,97655.81
2023-05-17T04:37:13.078Z,97771.94
2023-05-17T04:39:59.278Z,97641.84
2023-05-17T04:42:47.736Z,97779.47
2023-05-17T04:45:33.974Z,97778.22
2023-05-17T04:48:20.839Z,97805.91
2023-05-17T04:51:06.491Z,97638.03
2023-05-17T04:53:51.944Z,97814.50
2023-05-17T04:56:37.536Z,97751.97
2023-05-17T04:59:27.710Z,97811.91
2023-05-17T05:02:14.283Z,97824.91
2023-05-17T05:05:00.726Z,97685.63
2023-05-17T05:07:46.471Z,97749.00
2023-05-17T05:10:32.497Z,97777.78
2023-05-17T05:13:18.049Z,97662.50
2023-05-17T05:16:04.185Z,97653.38
2023-05-17T05:18:50.129Z,97792.13
2023-05-17T05:21:35.897Z,97660.19
2023-05-17T05:24:21.691Z,97787.97
2023-05-17T05:27:07.337Z,97810.41
2023-05-17T05:29:55.530Z,97783.97
2023-05-17T05:32:44.152Z,97809.50
2023-05-17T05:35:30.986Z,97812.22
2023-05-17T05:38:18.260Z,97770.22
2023-05-17T05:41:04.165Z,97660.00
2023-05-17T05:43:49.435Z,97834.09
2023-05-17T05:46:34.875Z,97798.03
2023-05-17T05:49:22.710Z,97791.41
2023-05-17T05:52:08.234Z,97852.22
2023-05-17T05:54:55.643Z,97822.41
2023-05-17T05:57:41.414Z,97792.22
2023-05-17T06:00:27.233Z,97826.56
2023-05-17T06:03:12.872Z,97677.19
2023-05-17T06:05:58.537Z,97770.03
2023-05-17T06:08:47.196Z,97833.69
2023-05-17T06:11:33.168Z,97852.22
2023-05-17T06:14:18.678Z,97839.41
2023-05-17T06:17:04.621Z,97719.28
2023-05-17T06:19:50.100Z,97843.94
2023-05-17T06:22:35.647Z,97815.78
2023-05-17T06:25:21.101Z,97683.50
2023-05-17T06:28:09.258Z,97683.72
2023-05-17T06:30:54.749Z,97694.13
2023-05-17T06:33:40.231Z,97850.41
2023-05-17T06:36:25.899Z,97846.53
2023-05-17T06:39:11.638Z,97839.50
2023-05-17T06:41:56.873Z,97851.38
2023-05-17T06:44:42.368Z,97867.19
2023-05-17T06:47:27.895Z,97844.13
2023-05-17T06:50:13.395Z,97688.75
2023-05-17T06:52:58.869Z,97709.38
2023-05-17T06:55:44.486Z,97718.59
2023-05-17T06:58:30.207Z,97723.81
2023-05-17T07:01:15.809Z,97851.69
2023-05-17T07:04:01.785Z,97741.88
2023-05-17T07:06:48.007Z,97655.84
2023-05-17T07:09:33.613Z,97858.16
2023-05-17T07:12:19.313Z,97723.75
2023-05-17T07:15:05.202Z,97866.00
2023-05-17T07:17:51.024Z,97847.31
2023-05-17T07:20:36.311Z,97751.91
2023-05-17T07:23:21.541Z,97845.75
2023-05-17T07:26:06.985Z,97860.03
2023-05-17T07:28:52.862Z,97691.25
2023-05-17T07:31:38.534Z,97710.88
2023-05-17T07:34:24.009Z,97817.75
2023-05-17T07:37:09.389Z,97857.59
2023-05-17T07:39:54.952Z,97702.25
2023-05-17T07:42:40.238Z,97708.53
2023-05-17T07:45:26.038Z,97861.94
2023-05-17T07:48:11.598Z,97710.84
2023-05-17T07:50:57.594Z,97724.25
2023-05-17T07:53:43.480Z,97706.53
2023-05-17T07:56:29.640Z,97762.59
2023-05-17T07:59:14.838Z,97709.34
2023-05-17T08:02:00.542Z,97699.47
2023-05-17T08:04:46.148Z,97864.25
2023-05-17T08:07:31.869Z,97786.78
2023-05-17T08:10:17.105Z,97872.56
2023-05-17T08:13:03.556Z,97864.19
2023-05-17T08:15:51.567Z,97727.19
2023-05-17T08:18:37.642Z,97878.53
2023-05-17T08:21:23.125Z,97901.03
2023-05-17T08:24:11.746Z,97705.72
2023-05-17T08:26:57.236Z,97727.09
2023-05-17T08:29:42.974Z,97751.78
2023-05-17T08:32:29.309Z,97873.19
2023-05-17T08:35:14.664Z,97771.53
2023-05-17T08:37:59.990Z,97836.94
2023-05-17T08:40:53.325Z,97706.13
2023-05-17T08:43:39.845Z,97643.78
2023-05-17T08:46:26.830Z,97722.66
2023-05-17T08:49:15.951Z,97785.66
2023-05-17T08:52:09.785Z,97861.31
2023-05-17T08:54:55.791Z,97705.09
2023-05-17T08:57:42.462Z,97708.09
2023-05-17T09:00:28.849Z,97834.78
2023-05-17T09:03:18.341Z,97863.75
2023-05-17T09:06:04.872Z,97858.00
2023-05-17T09:08:58.535Z,97739.84
2023-05-17T09:11:44.582Z,97770.28
2023-05-17T09:14:37.269Z,97793.13
2023-05-17T09:17:23.007Z,97820.66
2023-05-17T09:20:10.256Z,97819.66
2023-05-17T09:22:55.739Z,97863.41
2023-05-17T09:25:49.042Z,97762.88
2023-05-17T09:28:42.328Z,97756.72
2023-05-17T09:31:27.789Z,97788.13
2023-05-17T09:34:18.550Z,97863.50
2023-05-17T09:37:05.418Z,97875.63
2023-05-17T09:39:57.576Z,97827.59
2023-05-17T09:42:48.089Z,97757.25
2023-05-17T09:45:34.067Z,97846.03
2023-05-17T09:48:19.568Z,97913.97
2023-05-17T09:51:06.201Z,97806.91
2023-05-17T09:53:54.404Z,97828.41
2023-05-17T09:56:41.156Z,97740.34
2023-05-17T09:59:29.847Z,97900.97
2023-05-17T10:02:22.550Z,97840.34
2023-05-17T10:05:12.442Z,97754.63
2023-05-17T10:07:57.789Z,97886.00
2023-05-17T10:10:44.053Z,97888.28
2023-05-17T10:13:36.053Z,97887.09
2023-05-17T10:16:23.478Z,97752.59
2023-05-17T10:19:11.542Z,97840.91
2023-05-17T10:22:04.993Z,97862.72
2023-05-17T10:25:04.488Z,97798.00
2023-05-17T10:27:52.092Z,97888.75
2023-05-17T10:30:38.729Z,97895.34
2023-05-17T10:33:27.064Z,97886.09
2023-05-17T10:36:17.321Z,97893.19
2023-05-17T10:39:02.982Z,97863.03
2023-05-17T10:41:53.080Z,97763.66
2023-05-17T10:44:38.911Z,97896.19
2023-05-17T10:47:32.723Z,97880.53
2023-05-17T10:50:23.653Z,97865.97
2023-05-17T10:53:12.877Z,97896.06
2023-05-17T10:55:58.899Z,97878.56
2023-05-17T10:58:44.626Z,97900.28
2023-05-17T11:02:09.505Z,97908.91
2023-05-17T11:04:56.627Z,97849.19
2023-05-17T11:07:42.277Z,97770.63
2023-05-17T11:10:28.666Z,97777.16
2023-05-17T11:13:27.458Z,97896.19
2023-05-17T11:16:18.937Z,97869.06
2023-05-17T11:19:12.030Z,97779.63
2023-05-17T11:21:57.612Z,97901.19
2023-05-17T11:24:45.642Z,97906.19
2023-05-17T11:27:36.834Z,97786.69
2023-05-17T11:30:24.522Z,97922.47
2023-05-17T11:33:21.284Z,97768.19
2023-05-17T11:36:24.408Z,97885.00
2023-05-17T11:39:14.892Z,97910.44
2023-05-17T11:42:00.218Z,97905.69
2023-05-17T11:44:45.995Z,97787.75
2023-05-17T11:47:32.930Z,97760.66
2023-05-17T11:50:18.324Z,97911.59
2023-05-17T11:53:09.431Z,97907.28
2023-05-17T11:55:57.588Z,97915.94
2023-05-17T11:58:43.935Z,97913.25
2023-05-17T12:01:41.921Z,97925.38
2023-05-17T12:04:27.897Z,97778.25
2023-05-17T12:07:15.858Z,97915.69
2023-05-17T12:10:01.872Z,97879.09
2023-05-17T12:12:47.813Z,97906.50
2023-05-17T12:15:33.646Z,97892.06
2023-05-17T12:18:20.861Z,97824.84
2023-05-17T12:21:07.665Z,97820.25
2023-05-17T12:23:53.577Z,97927.94
2023-05-17T12:26:46.871Z,97856.00
2023-05-17T12:29:33.271Z,97817.84
2023-05-17T12:32:19.178Z,97777.78
2023-05-17T12:35:05.396Z,97779.31
2023-05-17T12:37:50.884Z,97767.13
2023-05-17T12:40:36.337Z,97892.91
2023-05-17T12:43:24.623Z,97839.47
2023-05-17T12:46:13.897Z,97755.19
2023-05-17T12:49:07.651Z,97770.13
2023-05-17T12:51:52.942Z,97796.94
2023-05-17T12:54:39.695Z,97848.00
2023-05-17T12:57:25.244Z,97899.00
2023-05-17T13:00:11.849Z,97861.47
2023-05-17T13:02:59.175Z,97898.97
2023-05-17T13:05:46.567Z,97864.56
2023-05-17T13:08:32.688Z,97755.69
2023-05-17T13:11:18.037Z,97752.94
2023-05-17T13:14:03.265Z,97812.69
2023-05-17T13:16:48.823Z,97874.03
2023-05-17T13:19:36.114Z,97768.75
2023-05-17T13:22:22.024Z,97831.31
2023-05-17T13:25:07.519Z,97856.19
2023-05-17T13:27:55.442Z,97837.59
2023-05-17T13:30:40.720Z,97879.56
2023-05-17T13:33:26.703Z,97835.91
2023-05-17T13:36:13.092Z,97872.66
2023-05-17T13:38:59.847Z,97884.06
2023-05-17T13:41:45.669Z,97747.72
2023-05-17T13:44:31.066Z,97868.41
2023-05-17T13:47:16.654Z,97831.16
2023-05-17T13:50:02.053Z,97875.56
2023-05-17T13:52:47.544Z,97867.13
2023-05-17T13:55:32.961Z,97730.38
2023-05-17T13:58:18.366Z,97755.53
2023-05-17T14:01:04.543Z,97753.31
2023-05-17T14:03:50.163Z,97888.28
2023-05-17T14:06:35.796Z,97850.28
2023-05-17T14:09:21.656Z,97833.50
2023-05-17T14:12:07.520Z,97860.22
2023-05-17T14:14:53.138Z,97827.53
2023-05-17T14:17:38.949Z,97711.72
2023-05-17T14:20:24.663Z,97711.22
2023-05-17T14:23:10.558Z,97704.34
2023-05-17T14:25:57.896Z,97711.56
2023-05-17T14:28:43.810Z,97852.41
2023-05-17T14:31:30.212Z,97711.72
2023-05-17T14:34:16.087Z,97841.00
2023-05-17T14:37:01.697Z,97819.66
2023-05-17T14:39:58.702Z,97792.41
2023-05-17T14:42:51.450Z,97838.41
2023-05-17T14:45:37.125Z,97692.63
2023-05-17T14:48:22.957Z,97849.72
2023-05-17T14:51:08.588Z,97826.03
2023-05-17T14:53:54.314Z,97832.41
2023-05-17T14:56:39.656Z,97717.47
2023-05-17T14:59:25.784Z,97784.06
2023-05-17T15:02:11.681Z,97723.00
2023-05-17T15:04:58.474Z,97822.13
2023-05-17T15:07:44.312Z,97792.06
2023-05-17T15:10:29.990Z,97719.41
2023-05-17T15:13:15.685Z,97711.41
2023-05-17T15:16:02.623Z,97810.53
2023-05-17T15:18:48.649Z,97705.88
2023-05-17T15:21:35.650Z,97843.22
2023-05-17T15:24:21.206Z,97698.19
2023-05-17T15:27:08.092Z,97799.97
2023-05-17T15:29:54.920Z,97812.47
2023-05-17T15:32:42.001Z,97822.53
2023-05-17T15:35:28.959Z,97637.38
2023-05-17T15:38:14.672Z,97837.13
2023-05-17T15:41:05.550Z,97712.19
2023-05-17T15:43:51.001Z,97861.13
2023-05-17T15:46:36.569Z,97722.13
2023-05-17T15:49:21.889Z,97828.44
2023-05-17T15:52:07.477Z,97845.59
2023-05-17T15:54:54.126Z,97824.88
2023-05-17T15:57:39.777Z,97759.31
2023-05-17T16:00:25.579Z,97780.13
2023-05-17T16:03:11.314Z,97747.53
2023-05-17T16:05:56.975Z,97856.69
2023-05-17T16:08:42.629Z,97819.97
2023-05-17T16:11:28.138Z,97739.97
2023-05-17T16:14:13.504Z,97863.44
2023-05-17T16:16:58.779Z,97798.63
2023-05-17T16:19:44.442Z,97854.50
2023-05-17T16:22:29.899Z,97739.91
2023-05-17T16:25:18.886Z,97869.91
2023-05-17T16:28:04.146Z,97874.75
2023-05-17T16:30:50.763Z,97842.28
2023-05-17T16:33:43.486Z,97875.75
2023-05-17T16:36:28.785Z,97831.69
2023-05-17T16:39:14.408Z,97874.13
2023-05-17T16:42:00.035Z,97884.22
2023-05-17T16:44:45.301Z,97770.50
2023-05-17T16:47:30.860Z,97882.25
2023-05-17T16:50:16.893Z,97783.69
2023-05-17T16:53:02.478Z,97891.88
2023-05-17T16:55:48.318Z,97729.19
2023-05-17T16:58:34.318Z,97789.44
2023-05-17T17:01:19.802Z,97747.47
2023-05-17T17:04:06.291Z,97898.47
2023-05-17T17:06:54.711Z,97909.66
2023-05-17T17:09:40.511Z,97916.59
2023-05-17T17:12:26.361Z,97921.41
2023-05-17T17:15:11.913Z,97951.63
2023-05-17T17:17:57.283Z,97908.44
2023-05-17T17:20:42.546Z,97945.78
2023-05-17T17:23:27.934Z,97953.91
2023-05-17T17:26:13.536Z,97973.63
2023-05-17T17:29:08.207Z,97923.63
2023-05-17T17:31:56.828Z,97906.06
2023-05-17T17:34:42.322Z,97907.38
2023-05-17T17:37:27.722Z,97932.50
2023-05-17T17:40:13.731Z,97821.94
2023-05-17T17:42:59.166Z,97888.84
2023-05-17T17:45:46.306Z,97975.34
2023-05-17T17:48:31.959Z,97937.84
2023-05-17T17:51:17.423Z,97855.53
2023-05-17T17:54:05.534Z,97829.03
2023-05-17T17:56:50.953Z,97834.06
2023-05-17T17:59:36.555Z,97974.47
2023-05-17T18:02:21.978Z,97939.75
2023-05-17T18:05:08.357Z,97994.34
2023-05-17T18:07:53.783Z,97981.88
2023-05-17T18:10:38.893Z,97948.53
2023-05-17T18:13:24.427Z,98014.94
2023-05-17T18:16:09.738Z,98048.88
2023-05-17T18:18:55.421Z,98038.75
2023-05-17T18:21:41.760Z,98030.09
2023-05-17T18:24:27.699Z,98013.59
2023-05-17T18:27:14.336Z,98039.06
2023-05-17T18:29:59.769Z,98036.97
2023-05-17T18:32:46.104Z,97893.81
2023-05-17T18:35:31.569Z,97895.13
2023-05-17T18:38:17.558Z,98028.50
2023-05-17T18:41:03.231Z,98009.00
2023-05-17T18:43:48.650Z,97902.03
2023-05-17T18:46:34.198Z,98018.06
2023-05-17T18:49:21.348Z,98046.75
2023-05-17T18:52:07.353Z,97939.38
2023-05-17T18:54:53.330Z,97917.38
2023-05-17T18:57:40.403Z,98063.97
2023-05-17T19:00:26.888Z,97918.81
2023-05-17T19:03:13.520Z,98067.44
2023-05-17T19:05:58.876Z,98064.53
2023-05-17T19:08:44.122Z,98038.09
2023-05-17T19:11:30.283Z,97977.00
2023-05-17T19:14:15.788Z,97928.06
2023-05-17T19:17:01.256Z,98076.34
2023-05-17T19:19:46.731Z,97955.59
2023-05-17T19:22:32.971Z,98109.50
2023-05-17T19:25:20.310Z,98116.09
2023-05-17T19:28:06.974Z,98132.56
2023-05-17T19:30:53.997Z,98126.28
2023-05-17T19:33:39.387Z,98140.19
2023-05-17T19:36:26.147Z,98078.19
2023-05-17T19:39:12.496Z,97980.53
2023-05-17T19:41:58.033Z,98137.13
2023-05-17T19:44:44.058Z,97998.81
2023-05-17T19:47:29.570Z,98102.50
2023-05-17T19:50:16.822Z,98135.72
2023-05-17T19:53:02.279Z,98091.69
2023-05-17T19:55:47.994Z,98024.16
2023-05-17T19:58:35.255Z,98111.25
2023-05-17T20:01:21.717Z,98008.69
2023-05-17T20:04:07.205Z,97988.50
2023-05-17T20:06:52.981Z,98102.59
2023-05-17T20:09:38.925Z,97974.44
2023-05-17T20:12:25.758Z,97978.03
2023-05-17T20:15:11.762Z,98016.75
2023-05-17T20:17:58.162Z,98150.16
2023-05-17T20:20:44.453Z,98148.06
2023-05-17T20:23:30.149Z,98000.88
2023-05-17T20:26:17.153Z,97996.09
2023-05-17T20:29:07.199Z,98139.53
2023-05-17T20:31:52.884Z,98132.03
2023-05-17T20:34:38.211Z,98154.41
2023-05-17T20:37:23.605Z,98030.28
2023-05-17T20:40:10.344Z,98167.09
2023-05-17T20:42:56.546Z,97995.50
2023-05-17T20:45:42.638Z,98146.25
2023-05-17T20:48:29.132Z,98157.47
2023-05-17T20:51:16.316Z,98061.81
2023-05-17T20:54:03.870Z,98149.59
2023-05-17T20:56:50.422Z,98150.59
2023-05-17T20:59:36.997Z,98065.47
2023-05-17T21:02:25.589Z,98164.09
2023-05-17T21:05:11.475Z,98159.75
2023-05-17T21:07:59.743Z,98135.22
2023-05-17T21:10:46.973Z,98161.75
2023-05-17T21:13:32.812Z,98167.44
2023-05-17T21:16:18.552Z,98081.13
2023-05-17T21:19:04.405Z,98012.22
2023-05-17T21:21:49.684Z,98034.69
2023-05-17T21:24:35.091Z,98045.19
2023-05-17T21:27:20.349Z,98180.94
2023-05-17T21:30:06.461Z,98138.81
2023-05-17T21:32:52.107Z,98025.56
2023-05-17T21:35:37.308Z,98006.94
2023-05-17T21:38:25.677Z,98046.91
2023-05-17T21:41:11.365Z,98167.94
2023-05-17T21:43:57.129Z,98136.28
2023-05-17T21:46:43.131Z,98174.88
2023-05-17T21:49:28.546Z,98175.78
2023-05-17T21:52:14.432Z,98191.72
2023-05-17T21:55:00.398Z,98179.03
2023-05-17T21:57:47.087Z,98170.13
2023-05-17T22:00:32.737Z,98178.94
2023-05-17T22:03:18.116Z,98030.97
2023-05-17T22:06:03.726Z,98185.53
2023-05-17T22:08:49.263Z,98186.78
2023-05-17T22:11:38.237Z,98198.00
2023-05-17T22:14:25.679Z,98190.75
2023-05-17T22:17:11.075Z,98044.28
2023-05-17T22:20:03.173Z,98029.47
2023-05-17T22:22:48.424Z,98052.34
2023-05-17T22:25:33.928Z,98049.44
2023-05-17T22:28:19.159Z,98192.41
2023-05-17T22:31:07.590Z,98198.97
2023-05-17T22:33:53.935Z,98171.78
2023-05-17T22:36:42.188Z,98138.94
2023-05-17T22:39:27.472Z,98183.19
2023-05-17T22:42:12.748Z,98182.81
2023-05-17T22:44:58.056Z,98160.50
2023-05-17T22:47:43.649Z,98134.69
2023-05-17T22:50:30.634Z,98160.09
2023-05-17T22:53:18.424Z,98184.16
2023-05-17T22:56:03.613Z,98178.78
2023-05-17T22:58:48.949Z,98174.25
2023-05-17T23:01:34.157Z,98047.91
2023-05-17T23:04:19.474Z,98029.03
2023-05-17T23:07:04.907Z,98170.47
2023-05-17T23:09:50.659Z,98055.66
2023-05-17T23:12:37.211Z,98062.81
2023-05-17T23:15:22.405Z,98156.44
2023-05-17T23:18:09.097Z,98180.09
2023-05-17T23:20:54.451Z,98083.56
2023-05-17T23:23:40.598Z,98188.81
2023-05-17T23:26:28.385Z,98049.34
2023-05-17T23:29:13.660Z,98186.91
2023-05-17T23:31:59.107Z,98234.44
2023-05-17T23:34:45.484Z,98211.81
2023-05-17T23:37:32.254Z,98148.03
2023-05-17T23:40:17.663Z,98162.78
2023-05-17T23:43:05.894Z,98183.31
2023-05-17T23:45:51.993Z,98200.53
2023-05-17T23:48:37.490Z,98174.72
2023-05-17T23:51:23.024Z,98108.09
2023-05-17T23:54:08.419Z,98239.97
2023-05-17T23:56:53.868Z,98214.84
2023-05-17T23:59:39.358Z,98212.88
